Pongnae — 3FDZ8 — position and weather

sailwx.info

Track history (hours):
 
Tides and Currents Weather Stations Pressure Air Temp Water Temp Dewpoint Dewpoint Depression Visibility Wind Speed Wind Dir Waves Ship Positions

Pongnae

Operator: V Ships Leisure SAM

Last reported at 2016-May-25 13:33 UTC. Time now 2016-May-25 18:53 UTC.
Position N 22°13' E 114°18'.

Length 171 m; draft 6.6 m.

Type: Passenger vessel. MMSI: 353669000.

Date/timePositionNaut miles runAvg speedWind from/ knotsBaromVisibWave heightAir tempDewpointWater temp
2016-May-25 13:33N 22°13' E 114°18'7 6.8
2016-May-25 12:33N 22°18' E 114°13'0 0.0
2016-May-25 11:33N 22°18' E 114°13'0 0.0
2016-May-25 10:32N 22°18' E 114°13'0 0.0
2016-May-25 09:32N 22°18' E 114°13'0 0.1
2016-May-25 08:32N 22°18' E 114°13'0 0.0
2016-May-25 07:32N 22°18' E 114°13'0 0.0
2016-May-25 06:32N 22°18' E 114°13'0 0.0
2016-May-25 05:32N 22°18' E 114°13'0 0.0
2016-May-25 04:32N 22°18' E 114°13'0 0.1
2016-May-25 03:32N 22°18' E 114°13'0 0.0
2016-May-25 02:32N 22°18' E 114°13'0 0.0
2016-May-25 01:32N 22°18' E 114°13'0 0.0
2016-May-25 00:32N 22°18' E 114°13'0 0.4
2016-May-24 23:33N 22°18' E 114°13'8 0.7
2016-May-24 13:11N 22°12' E 114°19'610.1
2016-May-24 12:33N 22°17' E 114°15'2 1.8
2016-May-24 11:34N 22°18' E 114°13'0 0.0
2016-May-24 10:31N 22°18' E 114°13'0 0.1
2016-May-24 09:31N 22°18' E 114°13'0 0.0
2016-May-24 08:31N 22°18' E 114°13'0 0.0
2016-May-24 07:31N 22°18' E 114°13'0 0.0
2016-May-24 06:28N 22°18' E 114°13'0 0.0
2016-May-24 05:31N 22°18' E 114°13'0 0.0
2016-May-24 04:31N 22°18' E 114°13'0 0.0
2016-May-24 03:31N 22°18' E 114°13'0 0.1
2016-May-24 02:31N 22°18' E 114°13'0 0.0
2016-May-24 01:31N 22°18' E 114°13'0 0.0
2016-May-24 00:31N 22°18' E 114°13'1 1.1
2016-May-23 23:33N 22°17' E 114°14'8 7.5
2016-May-23 22:26N 22°10' E 114°20'2 0.2
2016-May-23 13:07N 22°12' E 114°18'610.7
2016-May-23 12:33N 22°17' E 114°14'1 1.3
2016-May-23 11:33N 22°18' E 114°13'0 0.0
2016-May-23 10:32N 22°18' E 114°13'0 0.0
2016-May-23 09:32N 22°18' E 114°13'0 0.1
2016-May-23 08:32N 22°18' E 114°13'0 0.0
2016-May-23 07:32N 22°18' E 114°13'0 0.0
2016-May-23 06:32N 22°18' E 114°13'0 0.0
2016-May-23 05:32N 22°18' E 114°13'0 0.0
2016-May-23 04:32N 22°18' E 114°13'0 0.0
2016-May-23 03:32N 22°18' E 114°13'0 0.0
2016-May-23 02:32N 22°18' E 114°13'0 0.0
2016-May-23 01:32N 22°18' E 114°13'0 0.1
2016-May-23 00:32N 22°18' E 114°13'1 0.6
2016-May-22 23:33N 22°17' E 114°14'6 0.6
2016-May-22 13:06N 22°13' E 114°18'610.6
2016-May-22 12:33N 22°17' E 114°14'1 1.2
2016-May-22 11:33N 22°18' E 114°13'0 0.0
2016-May-22 10:33N 22°18' E 114°13'0 0.0
2016-May-22 09:33N 22°18' E 114°13'0 0.1
2016-May-22 08:33N 22°18' E 114°13'0 0.0
2016-May-22 07:32N 22°18' E 114°13'0 0.0
2016-May-22 06:32N 22°18' E 114°13'0 0.0
2016-May-22 05:29N 22°18' E 114°13'0 0.0
2016-May-22 04:32N 22°18' E 114°13'0 0.0
2016-May-22 03:32N 22°18' E 114°13'0 0.0
2016-May-22 02:32N 22°18' E 114°13'0 0.0
2016-May-22 01:32N 22°18' E 114°13'0 0.0
2016-May-22 00:32N 22°18' E 114°13'1 1.2
2016-May-21 23:33N 22°17' E 114°14'7 0.7
2016-May-21 13:25N 22°12' E 114°19'8 9.0
2016-May-21 12:33N 22°18' E 114°13'0 0.3
2016-May-21 11:33N 22°18' E 114°13'0 0.1
2016-May-21 10:32N 22°18' E 114°13'0 0.1
2016-May-21 09:32N 22°18' E 114°13'0 0.0
2016-May-21 08:32N 22°18' E 114°13'0 0.1
2016-May-21 07:32N 22°18' E 114°13'0 0.0
2016-May-21 06:32N 22°18' E 114°13'0 0.1
2016-May-21 05:32N 22°18' E 114°13'0 0.1
2016-May-21 04:31N 22°18' E 114°13'0 0.0
2016-May-21 03:31N 22°18' E 114°13'0 0.0
2016-May-21 02:31N 22°18' E 114°13'0 0.1
2016-May-21 01:31N 22°18' E 114°13'0 0.0
2016-May-21 00:31N 22°18' E 114°13'1 0.7
2016-May-20 23:34N 22°17' E 114°14'7 0.7
2016-May-20 13:07N 22°12' E 114°19'611.2
2016-May-20 12:33N 22°17' E 114°15'2 1.7
2016-May-20 11:33N 22°18' E 114°13'0 0.0
2016-May-20 10:32N 22°18' E 114°13'0 0.0
2016-May-20 09:32N 22°18' E 114°13'0 0.0
2016-May-20 08:32N 22°18' E 114°13'0 0.1
2016-May-20 07:32N 22°18' E 114°13'0 0.1
2016-May-20 06:32N 22°18' E 114°13'0 0.1
2016-May-20 05:32N 22°18' E 114°13'0 0.0
2016-May-20 04:32N 22°18' E 114°13'0 0.0
2016-May-20 03:32N 22°18' E 114°13'0 0.0
2016-May-20 02:32N 22°18' E 114°13'0 0.0
2016-May-20 01:32N 22°18' E 114°13'0 0.0
2016-May-20 00:32N 22°18' E 114°13'1 0.5
2016-May-19 23:33N 22°17' E 114°14'2 0.2
2016-May-19 12:33N 22°16' E 114°15'2 2.4
2016-May-19 11:33N 22°18' E 114°13'0 0.0
2016-May-19 10:33N 22°18' E 114°13'0 0.0
2016-May-19 09:33N 22°18' E 114°13'0 0.0
2016-May-19 08:33N 22°18' E 114°13'0 0.0
2016-May-19 07:33N 22°18' E 114°13'0 0.1
2016-May-19 06:33N 22°18' E 114°13'0 0.0
2016-May-19 05:33N 22°18' E 114°13'0 0.0
2016-May-19 04:33N 22°18' E 114°13'0 0.0
2016-May-19 03:30N 22°18' E 114°13'0 0.1
2016-May-19 02:33N 22°18' E 114°13'0 0.0
2016-May-19 01:33N 22°18' E 114°13'0 0.0
2016-May-19 00:33N 22°18' E 114°13'0 0.3
2016-May-18 23:33N 22°18' E 114°13'9 8.5
2016-May-18 22:30N 22°11' E 114°20'2 0.2
2016-May-18 13:09N 22°12' E 114°19'610.8
2016-May-18 12:33N 22°17' E 114°14'1 1.2
2016-May-18 11:32N 22°18' E 114°13'0 0.0
2016-May-18 10:32N 22°18' E 114°13'0 0.0
2016-May-18 09:32N 22°18' E 114°13'0 0.0
2016-May-18 08:32N 22°18' E 114°13'0 0.0
2016-May-18 07:32N 22°18' E 114°13'0 0.0
2016-May-18 06:32N 22°18' E 114°13'0 0.0
2016-May-18 05:32N 22°18' E 114°13'0 0.0
2016-May-18 04:32N 22°18' E 114°13'0 0.0
2016-May-18 03:32N 22°18' E 114°13'0 0.0
2016-May-18 02:32N 22°18' E 114°13'0 0.0
2016-May-18 01:32N 22°18' E 114°13'0 0.0
2016-May-18 00:32N 22°18' E 114°13'1 0.8
2016-May-17 23:33N 22°17' E 114°14'2 0.2
2016-May-17 12:30N 22°16' E 114°15'3 2.8
2016-May-17 11:33N 22°18' E 114°13'0 0.0
2016-May-17 10:31N 22°18' E 114°13'0 0.0
2016-May-17 09:31N 22°18' E 114°13'0 0.0
2016-May-17 08:31N 22°18' E 114°13'0 0.0
2016-May-17 07:31N 22°18' E 114°13'0 0.0
2016-May-17 06:31N 22°18' E 114°13'0 0.0
2016-May-17 05:28N 22°18' E 114°13'0 0.0
2016-May-17 04:31N 22°18' E 114°13'0 0.0
2016-May-17 03:31N 22°18' E 114°13'0 0.0
2016-May-17 02:28N 22°18' E 114°13'0 0.0
2016-May-17 01:31N 22°18' E 114°13'0 0.0
2016-May-17 00:31N 22°18' E 114°13'1 1.4
2016-May-16 23:33N 22°17' E 114°14'1 0.1
2016-May-16 12:30N 22°16' E 114°15'2 2.6
2016-May-16 11:34N 22°18' E 114°13'0 0.0
2016-May-16 10:31N 22°18' E 114°13'0 0.0
2016-May-16 09:31N 22°18' E 114°13'0 0.0
2016-May-16 08:31N 22°18' E 114°13'0 0.0
2016-May-16 07:31N 22°18' E 114°13'0 0.1
2016-May-16 06:31N 22°18' E 114°13'0 0.0
2016-May-16 05:31N 22°18' E 114°13'0 0.0
2016-May-16 04:31N 22°18' E 114°13'0 0.0
2016-May-16 03:31N 22°18' E 114°13'0 0.0
2016-May-16 02:31N 22°18' E 114°13'0 0.0
2016-May-16 01:31N 22°18' E 114°13'0 0.0
2016-May-16 00:31N 22°18' E 114°13'0 0.3
2016-May-15 23:34N 22°18' E 114°13'  
Track history (hours):
 
Tides and Currents Weather Stations Pressure Air Temp Water Temp Dewpoint Dewpoint Depression Visibility Wind Speed Wind Dir Waves Ship Positions

Pongnae

Operator: V Ships Leisure SAM

Last reported at 2016-May-25 13:33 UTC. Time now 2016-May-25 18:53 UTC.
Position N 22°13' E 114°18'.

Length 171 m; draft 6.6 m.

Type: Passenger vessel. MMSI: 353669000.

Date/timePositionNaut miles runAvg speedWind from/ knotsBaromVisibWave heightAir tempDewpointWater temp
2016-May-25 13:33N 22°13' E 114°18'7 6.8
2016-May-25 12:33N 22°18' E 114°13'0 0.0
2016-May-25 11:33N 22°18' E 114°13'0 0.0
2016-May-25 10:32N 22°18' E 114°13'0 0.0
2016-May-25 09:32N 22°18' E 114°13'0 0.1
2016-May-25 08:32N 22°18' E 114°13'0 0.0
2016-May-25 07:32N 22°18' E 114°13'0 0.0
2016-May-25 06:32N 22°18' E 114°13'0 0.0
2016-May-25 05:32N 22°18' E 114°13'0 0.0
2016-May-25 04:32N 22°18' E 114°13'0 0.1
2016-May-25 03:32N 22°18' E 114°13'0 0.0
2016-May-25 02:32N 22°18' E 114°13'0 0.0
2016-May-25 01:32N 22°18' E 114°13'0 0.0
2016-May-25 00:32N 22°18' E 114°13'0 0.4
2016-May-24 23:33N 22°18' E 114°13'8 0.7
2016-May-24 13:11N 22°12' E 114°19'610.1
2016-May-24 12:33N 22°17' E 114°15'2 1.8
2016-May-24 11:34N 22°18' E 114°13'0 0.0
2016-May-24 10:31N 22°18' E 114°13'0 0.1
2016-May-24 09:31N 22°18' E 114°13'0 0.0
2016-May-24 08:31N 22°18' E 114°13'0 0.0
2016-May-24 07:31N 22°18' E 114°13'0 0.0
2016-May-24 06:28N 22°18' E 114°13'0 0.0
2016-May-24 05:31N 22°18' E 114°13'0 0.0
2016-May-24 04:31N 22°18' E 114°13'0 0.0
2016-May-24 03:31N 22°18' E 114°13'0 0.1
2016-May-24 02:31N 22°18' E 114°13'0 0.0
2016-May-24 01:31N 22°18' E 114°13'0 0.0
2016-May-24 00:31N 22°18' E 114°13'1 1.1
2016-May-23 23:33N 22°17' E 114°14'8 7.5
2016-May-23 22:26N 22°10' E 114°20'2 0.2
2016-May-23 13:07N 22°12' E 114°18'610.7
2016-May-23 12:33N 22°17' E 114°14'1 1.3
2016-May-23 11:33N 22°18' E 114°13'0 0.0
2016-May-23 10:32N 22°18' E 114°13'0 0.0
2016-May-23 09:32N 22°18' E 114°13'0 0.1
2016-May-23 08:32N 22°18' E 114°13'0 0.0
2016-May-23 07:32N 22°18' E 114°13'0 0.0
2016-May-23 06:32N 22°18' E 114°13'0 0.0
2016-May-23 05:32N 22°18' E 114°13'0 0.0
2016-May-23 04:32N 22°18' E 114°13'0 0.0
2016-May-23 03:32N 22°18' E 114°13'0 0.0
2016-May-23 02:32N 22°18' E 114°13'0 0.0
2016-May-23 01:32N 22°18' E 114°13'0 0.1
2016-May-23 00:32N 22°18' E 114°13'1 0.6
2016-May-22 23:33N 22°17' E 114°14'6 0.6
2016-May-22 13:06N 22°13' E 114°18'610.6
2016-May-22 12:33N 22°17' E 114°14'1 1.2
2016-May-22 11:33N 22°18' E 114°13'0 0.0
2016-May-22 10:33N 22°18' E 114°13'0 0.0
2016-May-22 09:33N 22°18' E 114°13'0 0.1
2016-May-22 08:33N 22°18' E 114°13'0 0.0
2016-May-22 07:32N 22°18' E 114°13'0 0.0
2016-May-22 06:32N 22°18' E 114°13'0 0.0
2016-May-22 05:29N 22°18' E 114°13'0 0.0
2016-May-22 04:32N 22°18' E 114°13'0 0.0
2016-May-22 03:32N 22°18' E 114°13'0 0.0
2016-May-22 02:32N 22°18' E 114°13'0 0.0
2016-May-22 01:32N 22°18' E 114°13'0 0.0
2016-May-22 00:32N 22°18' E 114°13'1 1.2
2016-May-21 23:33N 22°17' E 114°14'7 0.7
2016-May-21 13:25N 22°12' E 114°19'8 9.0
2016-May-21 12:33N 22°18' E 114°13'0 0.3
2016-May-21 11:33N 22°18' E 114°13'0 0.1
2016-May-21 10:32N 22°18' E 114°13'0 0.1
2016-May-21 09:32N 22°18' E 114°13'0 0.0
2016-May-21 08:32N 22°18' E 114°13'0 0.1
2016-May-21 07:32N 22°18' E 114°13'0 0.0
2016-May-21 06:32N 22°18' E 114°13'0 0.1
2016-May-21 05:32N 22°18' E 114°13'0 0.1
2016-May-21 04:31N 22°18' E 114°13'0 0.0
2016-May-21 03:31N 22°18' E 114°13'0 0.0
2016-May-21 02:31N 22°18' E 114°13'0 0.1
2016-May-21 01:31N 22°18' E 114°13'0 0.0
2016-May-21 00:31N 22°18' E 114°13'1 0.7
2016-May-20 23:34N 22°17' E 114°14'7 0.7
2016-May-20 13:07N 22°12' E 114°19'611.2
2016-May-20 12:33N 22°17' E 114°15'2 1.7
2016-May-20 11:33N 22°18' E 114°13'0 0.0
2016-May-20 10:32N 22°18' E 114°13'0 0.0
2016-May-20 09:32N 22°18' E 114°13'0 0.0
2016-May-20 08:32N 22°18' E 114°13'0 0.1
2016-May-20 07:32N 22°18' E 114°13'0 0.1
2016-May-20 06:32N 22°18' E 114°13'0 0.1
2016-May-20 05:32N 22°18' E 114°13'0 0.0
2016-May-20 04:32N 22°18' E 114°13'0 0.0
2016-May-20 03:32N 22°18' E 114°13'0 0.0
2016-May-20 02:32N 22°18' E 114°13'0 0.0
2016-May-20 01:32N 22°18' E 114°13'0 0.0
2016-May-20 00:32N 22°18' E 114°13'1 0.5
2016-May-19 23:33N 22°17' E 114°14'2 0.2
2016-May-19 12:33N 22°16' E 114°15'2 2.4
2016-May-19 11:33N 22°18' E 114°13'0 0.0
2016-May-19 10:33N 22°18' E 114°13'0 0.0
2016-May-19 09:33N 22°18' E 114°13'0 0.0
2016-May-19 08:33N 22°18' E 114°13'0 0.0
2016-May-19 07:33N 22°18' E 114°13'0 0.1
2016-May-19 06:33N 22°18' E 114°13'0 0.0
2016-May-19 05:33N 22°18' E 114°13'0 0.0
2016-May-19 04:33N 22°18' E 114°13'0 0.0
2016-May-19 03:30N 22°18' E 114°13'0 0.1
2016-May-19 02:33N 22°18' E 114°13'0 0.0
2016-May-19 01:33N 22°18' E 114°13'0 0.0
2016-May-19 00:33N 22°18' E 114°13'0 0.3
2016-May-18 23:33N 22°18' E 114°13'9 8.5
2016-May-18 22:30N 22°11' E 114°20'2 0.2
2016-May-18 13:09N 22°12' E 114°19'610.8
2016-May-18 12:33N 22°17' E 114°14'1 1.2
2016-May-18 11:32N 22°18' E 114°13'0 0.0
2016-May-18 10:32N 22°18' E 114°13'0 0.0
2016-May-18 09:32N 22°18' E 114°13'0 0.0
2016-May-18 08:32N 22°18' E 114°13'0 0.0
2016-May-18 07:32N 22°18' E 114°13'0 0.0
2016-May-18 06:32N 22°18' E 114°13'0 0.0
2016-May-18 05:32N 22°18' E 114°13'0 0.0
2016-May-18 04:32N 22°18' E 114°13'0 0.0
2016-May-18 03:32N 22°18' E 114°13'0 0.0
2016-May-18 02:32N 22°18' E 114°13'0 0.0
2016-May-18 01:32N 22°18' E 114°13'0 0.0
2016-May-18 00:32N 22°18' E 114°13'1 0.8
2016-May-17 23:33N 22°17' E 114°14'2 0.2
2016-May-17 12:30N 22°16' E 114°15'3 2.8
2016-May-17 11:33N 22°18' E 114°13'0 0.0
2016-May-17 10:31N 22°18' E 114°13'0 0.0
2016-May-17 09:31N 22°18' E 114°13'0 0.0
2016-May-17 08:31N 22°18' E 114°13'0 0.0
2016-May-17 07:31N 22°18' E 114°13'0 0.0
2016-May-17 06:31N 22°18' E 114°13'0 0.0
2016-May-17 05:28N 22°18' E 114°13'0 0.0
2016-May-17 04:31N 22°18' E 114°13'0 0.0
2016-May-17 03:31N 22°18' E 114°13'0 0.0
2016-May-17 02:28N 22°18' E 114°13'0 0.0
2016-May-17 01:31N 22°18' E 114°13'0 0.0
2016-May-17 00:31N 22°18' E 114°13'1 1.4
2016-May-16 23:33N 22°17' E 114°14'1 0.1
2016-May-16 12:30N 22°16' E 114°15'2 2.6
2016-May-16 11:34N 22°18' E 114°13'0 0.0
2016-May-16 10:31N 22°18' E 114°13'0 0.0
2016-May-16 09:31N 22°18' E 114°13'0 0.0
2016-May-16 08:31N 22°18' E 114°13'0 0.0
2016-May-16 07:31N 22°18' E 114°13'0 0.1
2016-May-16 06:31N 22°18' E 114°13'0 0.0
2016-May-16 05:31N 22°18' E 114°13'0 0.0
2016-May-16 04:31N 22°18' E 114°13'0 0.0
2016-May-16 03:31N 22°18' E 114°13'0 0.0
2016-May-16 02:31N 22°18' E 114°13'0 0.0
2016-May-16 01:31N 22°18' E 114°13'0 0.0
2016-May-16 00:31N 22°18' E 114°13'0 0.3
2016-May-15 23:34N 22°18' E 114°13'  

Dump ship's entire track history